Terminal Aerodrome Forecast
Issued by NWS Salt Lake City, UT

Home | Current Version | Previous Version | Text Only | Print | Product List | Glossary On
Versions: 1 2 3 4 5 6 7 8 9 10 11 12 13 14 15 16 17 18 19 20 21 22 23 24 25
000
FTUS45 KSLC 090225 AAB
TAFSLC
TAF AMD
KSLC 090225Z 0902/1006 32005KT P6SM SCT040 BKN050
     FM090700 15007KT 5SM -RASN BKN040
     FM091200 16008KT P6SM -RA SCT040 BKN050
     FM092100 17008KT P6SM VCSH SCT050 BKN070=

USA.gov is the U.S. government's official web portal to all federal, state and local government web resources and services.